createdAt,value
2019-03-02T00:01:48.689Z,13.17
2019-03-02T00:04:18.451Z,14.23
2019-03-02T00:06:48.671Z,13.50
2019-03-02T00:09:18.868Z,14.70
2019-03-02T00:11:48.870Z,13.77
2019-03-02T00:14:19.412Z,15.13
2019-03-02T00:16:50.392Z,13.73
2019-03-02T00:19:20.416Z,14.07
2019-03-02T00:21:50.651Z,12.27
2019-03-02T00:24:20.855Z,16.80
2019-03-02T00:26:50.860Z,13.67
2019-03-02T00:29:20.772Z,14.43
2019-03-02T00:31:50.985Z,15.53
2019-03-02T00:34:21.169Z,13.47
2019-03-02T00:36:55.166Z,15.00
2019-03-02T00:39:22.979Z,13.70
2019-03-02T00:41:53.186Z,14.93
2019-03-02T00:44:23.393Z,13.83
2019-03-02T00:46:56.349Z,15.57
2019-03-02T00:49:25.413Z,26.70
2019-03-02T00:51:55.613Z,23.50
2019-03-02T00:54:25.800Z,26.57
2019-03-02T00:56:55.815Z,24.00
2019-03-02T00:59:25.747Z,27.70
2019-03-02T01:01:55.969Z,24.50
2019-03-02T01:04:26.877Z,22.17
2019-03-02T01:06:56.957Z,22.73
2019-03-02T01:09:27.076Z,22.70
2019-03-02T01:11:57.296Z,19.20
2019-03-02T01:14:28.700Z,15.23
2019-03-02T01:16:59.698Z,17.03
2019-03-02T01:19:29.859Z,12.90
2019-03-02T01:22:00.610Z,11.97
2019-03-02T01:24:30.904Z,13.13
2019-03-02T01:27:01.222Z,10.90
2019-03-02T01:29:31.140Z,10.10
2019-03-02T01:32:01.340Z,8.93
2019-03-02T01:34:31.559Z,10.30
2019-03-02T01:37:04.805Z,7.77
2019-03-02T01:39:33.937Z,10.07
2019-03-02T01:42:03.846Z,10.10
2019-03-02T01:44:33.976Z,9.20
2019-03-02T01:47:04.185Z,9.77
2019-03-02T01:49:36.707Z,10.10
2019-03-02T01:52:06.183Z,15.90
2019-03-02T01:54:36.218Z,16.83
2019-03-02T01:57:06.447Z,18.43
2019-03-02T01:59:38.676Z,17.40
2019-03-02T02:02:08.535Z,19.87
2019-03-02T02:04:38.646Z,21.77
2019-03-02T02:07:08.862Z,21.20
2019-03-02T02:09:40.569Z,20.10
2019-03-02T02:12:10.892Z,19.37
2019-03-02T02:14:40.917Z,18.97
2019-03-02T02:17:11.127Z,17.37
2019-03-02T02:19:41.198Z,17.93
2019-03-02T02:22:11.407Z,17.57
2019-03-02T02:24:41.609Z,16.40
2019-03-02T02:27:11.721Z,19.40
2019-03-02T02:29:43.545Z,16.83
2019-03-02T02:32:13.758Z,16.17
2019-03-02T02:34:43.971Z,17.20
2019-03-02T02:37:13.881Z,19.27
2019-03-02T02:39:44.004Z,18.60
2019-03-02T02:42:14.211Z,18.47
2019-03-02T02:44:44.412Z,20.33
2019-03-02T02:47:14.338Z,18.00
2019-03-02T02:49:49.286Z,17.07
2019-03-02T02:52:16.294Z,20.93
2019-03-02T02:54:46.533Z,20.80
2019-03-02T02:57:16.550Z,18.63
2019-03-02T02:59:46.733Z,17.93
2019-03-02T03:02:16.653Z,18.40
2019-03-02T03:04:46.569Z,13.87
2019-03-02T03:07:16.812Z,15.93
2019-03-02T03:09:55.525Z,15.40
2019-03-02T03:12:25.449Z,15.30
2019-03-02T03:14:58.499Z,15.97
2019-03-02T03:17:28.230Z,15.43
2019-03-02T03:19:59.478Z,16.37
2019-03-02T03:22:29.730Z,15.90
2019-03-02T03:24:59.673Z,15.80
2019-03-02T03:27:29.998Z,15.63
2019-03-02T03:30:00.343Z,13.50
2019-03-02T03:32:30.578Z,16.97
2019-03-02T03:35:01.107Z,16.70
2019-03-02T03:37:32.410Z,16.87
2019-03-02T03:40:02.337Z,18.83
2019-03-02T03:42:32.540Z,24.37
2019-03-02T03:45:04.401Z,22.93
2019-03-02T03:47:38.799Z,23.73
2019-03-02T03:50:09.285Z,24.27
2019-03-02T03:52:38.548Z,22.33
2019-03-02T03:55:10.122Z,20.73
2019-03-02T03:57:40.147Z,21.10
2019-03-02T04:00:12.989Z,20.87
2019-03-02T04:02:43.406Z,20.50
2019-03-02T04:05:13.779Z,21.43
2019-03-02T04:07:49.007Z,21.27
2019-03-02T04:10:24.448Z,20.13
2019-03-02T04:12:48.504Z,25.27
2019-03-02T04:15:18.690Z,21.57
2019-03-02T04:17:48.722Z,23.17
2019-03-02T04:20:25.625Z,21.70
2019-03-02T04:22:55.666Z,23.67
2019-03-02T04:25:25.674Z,22.63
2019-03-02T04:27:56.144Z,19.77
2019-03-02T04:30:31.134Z,22.80
2019-03-02T04:33:01.644Z,23.63
2019-03-02T04:35:33.390Z,21.63
2019-03-02T04:38:02.289Z,30.77
2019-03-02T04:40:32.589Z,32.20
2019-03-02T04:43:02.505Z,30.77
2019-03-02T04:45:32.410Z,28.03
2019-03-02T04:48:03.428Z,24.70
2019-03-02T04:50:33.895Z,23.10
2019-03-02T04:53:03.902Z,20.30
2019-03-02T04:55:33.960Z,17.00
2019-03-02T04:58:04.164Z,15.93
2019-03-02T05:00:34.175Z,23.63
2019-03-02T05:03:04.387Z,23.87
2019-03-02T05:05:34.574Z,24.20
2019-03-02T05:08:05.162Z,27.93
2019-03-02T05:10:36.508Z,22.33
2019-03-02T05:13:06.703Z,26.90
2019-03-02T05:15:36.902Z,25.13
2019-03-02T05:18:07.007Z,23.60
2019-03-02T05:20:40.541Z,16.60
2019-03-02T05:23:09.795Z,19.83
2019-03-02T05:25:40.011Z,17.53
2019-03-02T05:28:10.120Z,15.97
2019-03-02T05:30:40.164Z,17.03
2019-03-02T05:33:10.365Z,12.50
2019-03-02T05:35:40.585Z,16.77
2019-03-02T05:38:11.705Z,21.17
2019-03-02T05:40:42.077Z,17.17
2019-03-02T05:43:11.991Z,17.50
2019-03-02T05:45:41.919Z,18.10
2019-03-02T05:48:12.148Z,20.03
2019-03-02T05:50:42.341Z,18.27
2019-03-02T05:53:12.275Z,19.33
2019-03-02T05:55:42.400Z,18.97
2019-03-02T05:58:15.680Z,18.20
2019-03-02T06:00:44.516Z,17.70
2019-03-02T06:03:14.682Z,21.87
2019-03-02T06:05:44.705Z,31.33
2019-03-02T06:08:14.934Z,28.30
2019-03-02T06:10:45.156Z,32.40
2019-03-02T06:13:15.265Z,37.63
2019-03-02T06:15:46.447Z,28.63
2019-03-02T06:18:16.838Z,31.47
2019-03-02T06:20:47.502Z,27.53
2019-03-02T06:23:17.521Z,28.43
2019-03-02T06:25:47.754Z,26.30
2019-03-02T06:28:19.641Z,29.10
2019-03-02T06:30:50.008Z,37.10
2019-03-02T06:33:32.946Z,47.27
2019-03-02T06:36:04.931Z,38.23
2019-03-02T06:38:37.523Z,27.07
2019-03-02T06:41:07.616Z,19.20
2019-03-02T06:43:37.487Z,19.40
2019-03-02T06:46:07.389Z,25.30
2019-03-02T06:48:37.301Z,16.43
2019-03-02T06:51:07.719Z,19.73
2019-03-02T06:53:39.190Z,16.90
2019-03-02T06:56:09.200Z,17.20
2019-03-02T06:58:39.134Z,21.30
2019-03-02T07:01:09.195Z,31.37
2019-03-02T07:03:42.914Z,30.10
2019-03-02T07:06:12.843Z,28.17
2019-03-02T07:08:43.818Z,30.10
2019-03-02T07:11:13.930Z,29.60
2019-03-02T07:13:46.515Z,31.90
2019-03-02T07:16:19.995Z,38.73
2019-03-02T07:18:53.834Z,41.53
2019-03-02T07:21:24.027Z,46.17
2019-03-02T07:23:55.279Z,45.00
2019-03-02T07:26:25.463Z,41.23
2019-03-02T07:28:55.968Z,40.53
2019-03-02T07:31:26.715Z,41.00
2019-03-02T07:33:56.949Z,43.13
2019-03-02T07:36:28.059Z,51.47
2019-03-02T07:38:58.933Z,67.83
2019-03-02T07:41:29.207Z,76.80
2019-03-02T07:43:59.800Z,72.73
2019-03-02T07:46:29.834Z,45.10
2019-03-02T07:49:00.041Z,30.27
2019-03-02T07:51:30.235Z,31.40
2019-03-02T07:54:02.140Z,29.47
2019-03-02T07:56:32.546Z,29.07
2019-03-02T07:59:02.967Z,30.90
2019-03-02T08:01:33.172Z,33.90
2019-03-02T08:04:03.092Z,24.90
2019-03-02T08:06:33.245Z,24.30
2019-03-02T08:09:05.300Z,24.20
2019-03-02T08:11:35.620Z,24.70
2019-03-02T08:14:08.903Z,19.67
2019-03-02T08:16:37.933Z,20.53
2019-03-02T08:19:09.042Z,17.43
2019-03-02T08:21:39.167Z,20.03
2019-03-02T08:24:09.982Z,17.67
2019-03-02T08:26:40.168Z,21.43
2019-03-02T08:29:10.078Z,19.20
2019-03-02T08:31:41.892Z,20.60
2019-03-02T08:34:12.164Z,21.83
2019-03-02T08:36:42.349Z,19.00
2019-03-02T08:39:12.387Z,22.57
2019-03-02T08:41:42.402Z,23.87
2019-03-02T08:44:15.501Z,29.87
2019-03-02T08:46:44.560Z,30.30
2019-03-02T08:49:14.475Z,31.20
2019-03-02T08:51:44.500Z,28.60
2019-03-02T08:54:17.854Z,29.90
2019-03-02T08:56:47.756Z,30.80
2019-03-02T08:59:18.528Z,28.50
2019-03-02T09:01:51.307Z,29.10
2019-03-02T09:04:20.699Z,28.70
2019-03-02T09:06:50.949Z,20.30
2019-03-02T09:09:20.963Z,21.80
2019-03-02T09:11:51.113Z,21.10
2019-03-02T09:14:21.333Z,21.43
2019-03-02T09:16:51.543Z,17.90
2019-03-02T09:19:24.129Z,17.57
2019-03-02T09:21:55.583Z,16.63
2019-03-02T09:24:25.507Z,16.53
2019-03-02T09:26:55.740Z,17.07
2019-03-02T09:29:25.825Z,14.90
2019-03-02T09:31:55.869Z,13.73
2019-03-02T09:34:27.483Z,15.70
2019-03-02T09:36:57.869Z,15.13
2019-03-02T09:39:31.196Z,15.57
2019-03-02T09:42:01.495Z,15.50
2019-03-02T09:44:32.729Z,15.87
2019-03-02T09:47:04.952Z,16.53
2019-03-02T09:49:37.441Z,16.00
2019-03-02T09:52:07.358Z,16.80
2019-03-02T09:54:37.269Z,28.60
2019-03-02T09:57:07.336Z,14.60
2019-03-02T09:59:37.542Z,24.10
2019-03-02T10:02:10.550Z,15.63
2019-03-02T10:04:40.103Z,14.87
2019-03-02T10:07:10.190Z,13.87
2019-03-02T10:09:40.402Z,12.10
2019-03-02T10:12:13.831Z,13.60
2019-03-02T10:14:42.273Z,12.40
2019-03-02T10:17:12.427Z,13.07
2019-03-02T10:19:42.656Z,13.83
2019-03-02T10:22:13.234Z,13.60
2019-03-02T10:24:43.598Z,11.77
2019-03-02T10:27:17.230Z,12.63
2019-03-02T10:29:48.281Z,13.73
2019-03-02T10:32:19.622Z,12.27
2019-03-02T10:34:50.047Z,15.60
2019-03-02T10:37:20.126Z,14.97
2019-03-02T10:39:50.039Z,13.23
2019-03-02T10:42:20.207Z,13.83
2019-03-02T10:44:53.639Z,11.63
2019-03-02T10:47:22.318Z,10.80
2019-03-02T10:49:52.424Z,9.53
2019-03-02T10:52:22.579Z,12.53
2019-03-02T10:54:52.787Z,9.57
2019-03-02T10:57:22.946Z,9.57
2019-03-02T10:59:53.233Z,11.50
2019-03-02T11:02:23.382Z,15.90
2019-03-02T11:04:58.062Z,13.07
2019-03-02T11:07:56.382Z,11.07
2019-03-02T11:10:39.667Z,4.63
2019-03-02T11:13:28.628Z,4.60
2019-03-02T11:16:16.335Z,6.00
2019-03-02T11:19:11.531Z,7.67
2019-03-02T11:22:01.951Z,6.03
2019-03-02T11:24:45.580Z,6.47
2019-03-02T11:27:35.144Z,7.27
2019-03-02T11:30:22.554Z,7.40
2019-03-02T11:33:20.649Z,6.90
2019-03-02T11:36:10.599Z,5.53
2019-03-02T11:39:03.180Z,5.00
2019-03-02T11:41:43.493Z,7.00
2019-03-02T11:44:35.597Z,10.00
2019-03-02T11:47:23.396Z,6.13
2019-03-02T11:50:14.288Z,6.33
2019-03-02T11:53:01.535Z,7.67
2019-03-02T11:55:40.451Z,8.53
2019-03-02T11:58:33.039Z,7.47
2019-03-02T12:01:30.104Z,8.33
2019-03-02T12:04:07.234Z,7.70
2019-03-02T12:07:02.949Z,7.90
2019-03-02T12:10:05.118Z,5.53
2019-03-02T12:12:42.505Z,4.63
2019-03-02T12:15:34.796Z,6.40
2019-03-02T12:18:19.560Z,12.67
2019-03-02T12:21:21.242Z,6.03
2019-03-02T12:23:57.905Z,8.60
2019-03-02T12:26:46.434Z,9.20
2019-03-02T12:29:36.626Z,8.30
2019-03-02T12:32:24.636Z,5.00
2019-03-02T12:35:07.305Z,9.83
2019-03-02T12:37:52.050Z,9.80
2019-03-02T12:40:40.070Z,6.00
2019-03-02T12:43:28.862Z,6.70
2019-03-02T12:46:19.551Z,10.90
2019-03-02T12:48:56.320Z,8.80
2019-03-02T12:51:43.830Z,9.90
2019-03-02T12:54:30.967Z,11.80
2019-03-02T12:57:20.041Z,9.23
2019-03-02T13:00:09.002Z,7.27
2019-03-02T13:03:13.275Z,9.47
2019-03-02T13:05:53.946Z,8.43
2019-03-02T13:08:42.400Z,9.27
2019-03-02T13:11:37.376Z,7.03
2019-03-02T13:14:25.098Z,7.20
2019-03-02T13:17:29.335Z,4.90
2019-03-02T13:20:21.073Z,2.80
2019-03-02T13:23:19.337Z,4.90
2019-03-02T13:26:13.553Z,5.70
2019-03-02T13:29:02.733Z,8.70
2019-03-02T13:31:59.556Z,7.10
2019-03-02T13:34:48.151Z,7.80
2019-03-02T13:37:25.004Z,8.00
2019-03-02T13:40:12.530Z,9.27
2019-03-02T13:43:04.427Z,8.17
2019-03-02T13:45:42.684Z,7.20
2019-03-02T13:48:37.822Z,9.80
2019-03-02T13:51:37.436Z,9.90
2019-03-02T13:54:22.237Z,7.27
2019-03-02T13:57:31.891Z,7.43
2019-03-02T14:00:20.236Z,7.07
2019-03-02T14:02:58.549Z,9.77
2019-03-02T14:06:05.654Z,6.30
2019-03-02T14:08:57.618Z,7.33
2019-03-02T14:11:52.217Z,15.00
2019-03-02T14:14:41.088Z,10.97
2019-03-02T14:20:35.697Z,4.87
2019-03-02T14:23:26.334Z,5.20
2019-03-02T14:26:21.377Z,8.57
2019-03-02T14:29:08.179Z,6.20
2019-03-02T14:31:50.639Z,5.93
2019-03-02T14:34:40.246Z,8.83
2019-03-02T14:37:25.883Z,6.27
2019-03-02T14:40:15.565Z,9.20
2019-03-02T14:43:10.966Z,8.43
2019-03-02T14:45:49.969Z,7.10
2019-03-02T14:48:31.301Z,9.90
2019-03-02T14:51:23.544Z,7.37
2019-03-02T14:54:12.178Z,8.90
2019-03-02T14:56:57.667Z,8.60
2019-03-02T14:59:50.168Z,11.03
2019-03-02T15:02:42.658Z,9.37
2019-03-02T15:05:46.999Z,7.57
2019-03-02T15:08:31.569Z,6.97
2019-03-02T15:11:18.963Z,5.73
2019-03-02T15:14:22.839Z,5.70
2019-03-02T15:17:30.033Z,6.73
2019-03-02T15:20:28.918Z,7.37
2019-03-02T15:23:07.058Z,8.80
2019-03-02T15:26:06.331Z,11.13
2019-03-02T15:28:52.856Z,14.33
2019-03-02T15:31:54.150Z,14.63
2019-03-02T15:34:49.593Z,13.57
2019-03-02T15:37:30.673Z,15.80
2019-03-02T15:40:16.363Z,17.90
2019-03-02T15:43:14.026Z,21.10
2019-03-02T15:46:05.679Z,20.27
2019-03-02T15:48:48.000Z,20.93
2019-03-02T15:51:45.734Z,19.83
2019-03-02T15:54:33.025Z,18.53
2019-03-02T15:57:39.439Z,25.90
2019-03-02T16:00:24.832Z,28.53
2019-03-02T16:03:15.077Z,31.40
2019-03-02T16:06:04.606Z,32.77
2019-03-02T16:08:53.487Z,38.50
2019-03-02T16:11:39.742Z,39.27
2019-03-02T16:14:23.168Z,30.00
2019-03-02T16:17:10.556Z,23.40
2019-03-02T16:20:18.145Z,25.50
2019-03-02T16:23:05.943Z,26.60
2019-03-02T16:25:53.609Z,33.37
2019-03-02T16:31:48.536Z,14.87
2019-03-02T16:34:47.411Z,10.13
2019-03-02T16:37:46.157Z,10.20
2019-03-02T16:40:27.217Z,8.53
2019-03-02T16:43:12.408Z,10.50
2019-03-02T16:45:49.897Z,11.10
2019-03-02T16:48:34.247Z,13.33
2019-03-02T16:51:30.993Z,10.43
2019-03-02T16:54:33.297Z,11.43
2019-03-02T16:57:30.155Z,11.20
2019-03-02T17:00:21.946Z,12.80
2019-03-02T17:03:26.372Z,15.43
2019-03-02T17:06:09.279Z,10.67
2019-03-02T17:08:54.453Z,11.60
2019-03-02T17:11:52.703Z,13.50
2019-03-02T17:14:35.856Z,10.83
2019-03-02T17:17:18.275Z,9.90
2019-03-02T17:20:07.409Z,10.33
2019-03-02T17:22:48.504Z,16.13
2019-03-02T17:25:20.647Z,28.10
2019-03-02T17:28:08.104Z,23.10
2019-03-02T17:31:09.640Z,12.87
2019-03-02T17:34:10.806Z,11.27
2019-03-02T17:36:51.772Z,14.40
2019-03-02T17:39:47.151Z,16.73
2019-03-02T17:42:36.200Z,23.80
2019-03-02T17:45:26.235Z,16.13
2019-03-02T17:48:23.795Z,17.37
2019-03-02T17:51:03.853Z,18.00
2019-03-02T17:53:59.904Z,21.23
2019-03-02T17:56:48.305Z,13.80
2019-03-02T17:59:46.213Z,13.17
2019-03-02T18:02:35.144Z,11.30
2019-03-02T18:05:36.732Z,17.00
2019-03-02T18:08:38.077Z,17.90
2019-03-02T18:11:19.652Z,17.93
2019-03-02T18:14:16.154Z,14.50
2019-03-02T18:16:55.984Z,13.57
2019-03-02T18:19:26.196Z,12.50
2019-03-02T18:21:56.298Z,11.10
2019-03-02T18:24:26.417Z,8.90
2019-03-02T18:26:56.956Z,13.33
2019-03-02T18:29:29.321Z,11.77
2019-03-02T18:32:02.159Z,12.77
2019-03-02T18:34:31.946Z,13.87
2019-03-02T18:37:02.066Z,13.50
2019-03-02T18:39:32.119Z,25.43
2019-03-02T18:42:02.335Z,27.37
2019-03-02T18:44:32.541Z,24.10
2019-03-02T18:47:02.568Z,26.67
2019-03-02T18:49:51.810Z,24.33
2019-03-02T18:52:44.601Z,20.50
2019-03-02T18:55:14.832Z,16.93
2019-03-02T18:57:46.492Z,28.00
2019-03-02T19:00:22.220Z,28.40
2019-03-02T19:02:52.135Z,29.97
2019-03-02T19:05:28.865Z,21.00
2019-03-02T19:08:00.699Z,19.13
2019-03-02T19:10:31.214Z,18.53
2019-03-02T19:13:04.968Z,24.60
2019-03-02T19:15:33.319Z,20.30
2019-03-02T19:18:03.531Z,11.80
2019-03-02T19:20:33.747Z,10.13
2019-03-02T19:23:03.865Z,10.07
2019-03-02T19:25:33.985Z,9.73
2019-03-02T19:28:04.208Z,9.23
2019-03-02T19:30:34.643Z,9.23
2019-03-02T19:33:05.190Z,9.57
2019-03-02T19:35:35.192Z,9.70
2019-03-02T19:38:05.917Z,10.47
2019-03-02T19:40:36.315Z,9.37
2019-03-02T19:43:06.506Z,9.97
2019-03-02T19:45:36.641Z,16.60
2019-03-02T19:48:06.911Z,26.00
2019-03-02T19:50:37.116Z,22.20
2019-03-02T19:53:07.251Z,20.20
2019-03-02T19:55:37.450Z,24.13
2019-03-02T19:58:07.573Z,34.20
2019-03-02T20:00:37.694Z,26.97
2019-03-02T20:03:07.913Z,23.60
2019-03-02T20:05:38.325Z,26.30
2019-03-02T20:08:08.351Z,27.80
2019-03-02T20:10:38.482Z,22.60
2019-03-02T20:13:08.676Z,17.53
2019-03-02T20:15:38.962Z,20.33
2019-03-02T20:18:09.381Z,20.37
2019-03-02T20:20:39.497Z,17.30
2019-03-02T20:23:09.726Z,21.27
2019-03-02T20:25:39.948Z,18.50
2019-03-02T20:28:10.472Z,16.33
2019-03-02T20:30:40.383Z,15.17
2019-03-02T20:33:10.712Z,18.90
2019-03-02T20:35:40.836Z,25.07
2019-03-02T20:38:11.050Z,28.37
2019-03-02T20:40:41.241Z,19.37
2019-03-02T20:43:11.257Z,18.60
2019-03-02T20:45:41.153Z,19.27
2019-03-02T20:48:11.361Z,19.23
2019-03-02T20:50:41.590Z,19.87
2019-03-02T20:53:11.708Z,20.57
2019-03-02T20:55:41.846Z,20.63
2019-03-02T20:58:12.044Z,19.43
2019-03-02T21:00:42.556Z,21.47
2019-03-02T21:03:12.949Z,23.10
2019-03-02T21:05:43.057Z,22.83
2019-03-02T21:08:13.251Z,25.07
2019-03-02T21:10:43.752Z,21.47
2019-03-02T21:13:13.781Z,21.40
2019-03-02T21:15:44.044Z,24.53
2019-03-02T21:18:14.063Z,22.03
2019-03-02T21:20:44.182Z,21.23
2019-03-02T21:23:14.380Z,17.30
2019-03-02T21:25:44.581Z,18.33
2019-03-02T21:28:14.586Z,17.53
2019-03-02T21:30:44.705Z,17.13
2019-03-02T21:33:15.102Z,16.43
2019-03-02T21:35:45.758Z,12.20
2019-03-02T21:38:15.826Z,11.47
2019-03-02T21:40:46.049Z,9.90
2019-03-02T21:43:16.251Z,11.70
2019-03-02T21:45:46.456Z,11.33
2019-03-02T21:48:16.482Z,11.20
2019-03-02T21:50:46.738Z,11.10
2019-03-02T21:53:16.981Z,10.60
2019-03-02T21:55:46.994Z,11.07
2019-03-02T21:58:17.197Z,13.90
2019-03-02T22:00:47.409Z,14.00
2019-03-02T22:03:17.427Z,13.13
2019-03-02T22:05:47.611Z,13.83
2019-03-02T22:08:17.839Z,16.53
2019-03-02T22:10:51.853Z,14.40
2019-03-02T22:13:21.888Z,12.97
2019-03-02T22:15:51.913Z,15.27
2019-03-02T22:18:22.541Z,13.17
2019-03-02T22:20:59.879Z,13.57
2019-03-02T22:23:30.007Z,15.00
2019-03-02T22:26:00.431Z,15.70
2019-03-02T22:28:30.649Z,16.40
2019-03-02T22:31:00.845Z,17.10
2019-03-02T22:33:30.878Z,17.97
2019-03-02T22:36:01.083Z,14.90
2019-03-02T22:38:31.096Z,11.30
2019-03-02T22:41:01.222Z,11.70
2019-03-02T22:43:31.433Z,11.67
2019-03-02T22:46:01.721Z,11.60
2019-03-02T22:48:31.899Z,11.10
2019-03-02T22:51:01.820Z,11.40
2019-03-02T22:53:32.012Z,14.60
2019-03-02T22:56:02.226Z,14.07
2019-03-02T22:58:33.830Z,14.77
2019-03-02T23:01:32.061Z,11.77
2019-03-02T23:04:02.349Z,11.70
2019-03-02T23:06:32.570Z,9.10
2019-03-02T23:09:02.664Z,8.77
2019-03-02T23:11:32.559Z,9.70
2019-03-02T23:14:02.751Z,9.13
2019-03-02T23:16:32.974Z,8.87
2019-03-02T23:19:02.900Z,9.43
2019-03-02T23:21:32.806Z,10.53
2019-03-02T23:24:03.000Z,7.60
2019-03-02T23:26:33.119Z,8.10
2019-03-02T23:29:03.123Z,9.33
2019-03-02T23:31:33.249Z,10.30
2019-03-02T23:34:03.857Z,12.70
2019-03-02T23:36:34.345Z,11.90
2019-03-02T23:39:05.926Z,12.83
2019-03-02T23:41:35.960Z,11.40
2019-03-02T23:44:06.268Z,8.30
2019-03-02T23:46:36.452Z,8.57
2019-03-02T23:49:06.545Z,7.90
2019-03-02T23:51:36.469Z,7.00
2019-03-02T23:54:06.676Z,9.17
2019-03-02T23:56:36.695Z,9.10
2019-03-02T23:59:06.922Z,8.20
